createdAt,value
2019-03-18T00:02:11.470Z,70.42
2019-03-18T00:05:14.798Z,70.26
2019-03-18T00:08:18.116Z,70.67
2019-03-18T00:11:21.476Z,70.64
2019-03-18T00:14:24.790Z,69.92
2019-03-18T00:17:28.083Z,70.00
2019-03-18T00:20:31.410Z,70.38
2019-03-18T00:23:34.731Z,69.96
2019-03-18T00:26:38.085Z,69.42
2019-03-18T00:29:41.401Z,70.69
2019-03-18T00:32:44.684Z,70.94
2019-03-18T00:35:48.013Z,70.84
2019-03-18T00:38:51.327Z,70.74
2019-03-18T00:41:54.678Z,70.96
2019-03-18T00:44:57.958Z,71.26
2019-03-18T00:48:01.256Z,70.80
2019-03-18T00:51:04.574Z,70.69
2019-03-18T00:54:07.906Z,71.21
2019-03-18T00:57:11.215Z,70.76
2019-03-18T01:00:15.771Z,70.99
2019-03-18T01:03:19.082Z,71.21
2019-03-18T01:06:22.410Z,71.15
2019-03-18T01:09:25.823Z,71.20
2019-03-18T01:12:29.123Z,71.40
2019-03-18T01:15:32.453Z,71.42
2019-03-18T01:18:35.763Z,71.04
2019-03-18T01:21:39.689Z,70.42
2019-03-18T01:24:42.900Z,70.84
2019-03-18T01:27:46.272Z,70.43
2019-03-18T01:30:49.594Z,70.54
2019-03-18T01:33:52.894Z,70.45
2019-03-18T01:36:56.201Z,71.19
2019-03-18T01:39:59.509Z,71.06
2019-03-18T01:43:02.820Z,70.92
2019-03-18T01:46:06.125Z,71.21
2019-03-18T01:49:09.565Z,70.87
2019-03-18T01:52:12.867Z,70.97
2019-03-18T01:55:16.190Z,71.02
2019-03-18T01:58:19.531Z,70.89
2019-03-18T02:01:22.864Z,70.59
2019-03-18T02:04:26.154Z,70.87
2019-03-18T02:07:29.466Z,70.55
2019-03-18T02:10:32.799Z,70.90
2019-03-18T02:13:36.139Z,71.11
2019-03-18T02:16:39.444Z,70.72
2019-03-18T02:19:42.773Z,70.68
2019-03-18T02:22:46.085Z,71.13
2019-03-18T02:25:49.501Z,71.47
2019-03-18T02:28:52.792Z,71.50
2019-03-18T02:31:56.101Z,72.05
2019-03-18T02:34:59.392Z,72.33
2019-03-18T02:38:02.789Z,72.17
2019-03-18T02:41:06.079Z,72.59
2019-03-18T02:44:09.399Z,72.52
2019-03-18T02:47:12.719Z,72.58
2019-03-18T02:50:16.019Z,72.72
2019-03-18T02:53:19.349Z,72.58
2019-03-18T02:56:22.658Z,72.14
2019-03-18T02:59:25.962Z,72.09
2019-03-18T03:02:29.264Z,71.63
2019-03-18T03:05:32.591Z,71.16
2019-03-18T03:08:35.942Z,70.87
2019-03-18T03:11:39.234Z,69.91
2019-03-18T03:14:42.568Z,69.94
2019-03-18T03:17:45.903Z,69.21
2019-03-18T03:20:49.203Z,68.15
2019-03-18T03:23:52.518Z,68.10
2019-03-18T03:26:55.815Z,67.75
2019-03-18T03:29:59.143Z,67.32
2019-03-18T03:33:02.468Z,67.26
2019-03-18T03:36:05.768Z,66.56
2019-03-18T03:39:09.077Z,66.51
2019-03-18T03:42:12.372Z,66.71
2019-03-18T03:45:15.683Z,66.47
2019-03-18T03:48:19.001Z,66.64
2019-03-18T03:51:22.288Z,66.57
2019-03-18T03:54:25.595Z,66.06
2019-03-18T03:57:28.899Z,66.18
2019-03-18T04:00:32.203Z,66.21
2019-03-18T04:03:38.666Z,66.41
2019-03-18T04:06:40.659Z,66.49
2019-03-18T04:09:44.041Z,66.80
2019-03-18T04:12:47.334Z,66.71
2019-03-18T04:15:50.650Z,66.85
2019-03-18T04:18:54.033Z,67.10
2019-03-18T04:21:57.307Z,67.55
2019-03-18T04:25:00.638Z,67.29
2019-03-18T04:28:03.903Z,67.25
2019-03-18T04:31:07.213Z,67.58
2019-03-18T04:34:10.525Z,67.29
2019-03-18T04:37:13.835Z,67.65
2019-03-18T04:40:17.156Z,67.86
2019-03-18T04:43:20.442Z,68.00
2019-03-18T04:46:23.767Z,68.35
2019-03-18T04:49:27.082Z,68.59
2019-03-18T04:52:30.380Z,68.49
2019-03-18T04:55:33.698Z,68.79
2019-03-18T04:58:36.982Z,68.75
2019-03-18T05:01:40.356Z,68.55
2019-03-18T05:04:43.674Z,68.97
2019-03-18T05:07:46.966Z,69.11
2019-03-18T05:10:50.283Z,69.00
2019-03-18T05:13:53.668Z,68.90
2019-03-18T05:16:57.151Z,68.87
2019-03-18T05:20:00.460Z,68.83
2019-03-18T05:23:03.736Z,69.04
2019-03-18T05:26:07.056Z,69.03
2019-03-18T05:29:10.360Z,69.24
2019-03-18T05:32:13.699Z,68.87
2019-03-18T05:35:17.015Z,68.43
2019-03-18T05:38:20.311Z,67.78
2019-03-18T05:41:23.634Z,67.77
2019-03-18T05:44:26.922Z,68.00
2019-03-18T05:47:39.111Z,67.86
2019-03-18T05:50:35.261Z,66.71
2019-03-18T05:53:38.699Z,64.66
2019-03-18T05:56:42.011Z,61.21
2019-03-18T06:03:55.358Z,55.77
2019-03-18T06:06:59.303Z,52.24
2019-03-18T06:28:03.900Z,36.65
2019-03-18T07:38:53.737Z,52.15
2019-03-18T07:41:57.036Z,29.72
2019-03-18T07:45:00.418Z,37.90
2019-03-18T07:48:06.380Z,33.28
2019-03-18T07:51:08.736Z,29.63
2019-03-18T07:54:12.104Z,33.07
2019-03-18T07:57:15.423Z,38.42
2019-03-18T08:00:18.751Z,40.69
2019-03-18T08:03:22.060Z,40.33
2019-03-18T08:06:25.399Z,34.08
2019-03-18T08:09:28.833Z,39.25
2019-03-18T08:12:32.148Z,42.01
2019-03-18T08:15:35.465Z,41.52
2019-03-18T08:18:43.526Z,45.28
2019-03-18T08:21:43.887Z,48.53
2019-03-18T08:24:47.206Z,47.19
2019-03-18T08:27:50.619Z,48.45
2019-03-18T08:30:53.942Z,50.31
2019-03-18T08:33:57.240Z,29.42
2019-03-18T08:37:00.537Z,27.53
2019-03-18T08:40:06.002Z,30.96
2019-03-18T08:43:09.306Z,39.21
2019-03-18T08:46:12.647Z,44.75
2019-03-18T08:49:15.970Z,46.49
2019-03-18T08:52:19.385Z,48.79
2019-03-18T08:55:22.697Z,51.22
2019-03-18T08:58:26.084Z,53.31
2019-03-18T09:01:29.429Z,54.91
2019-03-18T09:04:32.739Z,55.56
2019-03-18T09:07:36.095Z,55.89
2019-03-18T09:10:39.391Z,57.04
2019-03-18T09:13:42.730Z,56.83
2019-03-18T09:16:46.111Z,57.39
2019-03-18T09:19:49.436Z,56.60
2019-03-18T09:22:52.747Z,56.54
2019-03-18T09:25:56.436Z,56.12
2019-03-18T09:28:59.822Z,56.85
2019-03-18T09:32:03.144Z,58.06
2019-03-18T09:35:07.216Z,57.31
2019-03-18T09:38:10.571Z,55.33
2019-03-18T09:41:13.924Z,49.86
2019-03-18T09:44:17.292Z,50.67
2019-03-18T09:47:20.578Z,51.24
2019-03-18T09:50:25.718Z,53.45
2019-03-18T09:53:28.987Z,54.15
2019-03-18T09:56:32.405Z,54.46
2019-03-18T09:59:35.788Z,55.07
2019-03-18T10:02:39.109Z,54.98
2019-03-18T10:05:43.937Z,54.34
2019-03-18T10:08:47.584Z,53.18
2019-03-18T10:11:50.887Z,50.09
2019-03-18T10:14:54.210Z,50.72
2019-03-18T10:17:57.496Z,50.88
2019-03-18T10:21:00.879Z,49.37
2019-03-18T10:24:04.237Z,48.19
2019-03-18T10:27:07.530Z,46.95
2019-03-18T10:30:16.916Z,46.59
2019-03-18T10:33:20.297Z,48.39
2019-03-18T10:36:23.616Z,46.87
2019-03-18T10:39:26.955Z,45.31
2019-03-18T10:42:30.271Z,47.84
2019-03-18T10:45:33.582Z,47.83
2019-03-18T10:48:36.884Z,47.33
2019-03-18T10:51:40.264Z,47.74
2019-03-18T10:54:43.570Z,48.48
2019-03-18T10:57:46.873Z,47.77
2019-03-18T11:00:50.216Z,47.00
2019-03-18T11:03:53.481Z,48.48
2019-03-18T11:06:56.814Z,47.31
2019-03-18T11:10:00.260Z,46.39
2019-03-18T11:13:03.712Z,47.17
2019-03-18T11:16:07.072Z,47.78
2019-03-18T11:19:10.373Z,48.09
2019-03-18T11:22:13.687Z,47.74
2019-03-18T11:25:17.469Z,48.62
2019-03-18T11:28:20.788Z,49.47
2019-03-18T11:31:24.183Z,49.49
2019-03-18T11:34:27.470Z,50.54
2019-03-18T11:37:30.789Z,49.82
2019-03-18T11:40:34.084Z,49.68
2019-03-18T11:43:37.397Z,49.92
2019-03-18T11:46:40.818Z,48.32
2019-03-18T11:49:45.725Z,47.48
2019-03-18T11:52:49.072Z,46.16
2019-03-18T11:55:52.393Z,44.46
2019-03-18T11:58:55.683Z,45.28
2019-03-18T12:01:59.070Z,47.93
2019-03-18T12:05:02.410Z,53.54
2019-03-18T12:08:05.706Z,56.10
2019-03-18T12:11:09.037Z,53.71
2019-03-18T12:14:12.335Z,48.91
2019-03-18T12:17:15.648Z,45.03
2019-03-18T12:20:24.693Z,45.35
2019-03-18T12:23:23.999Z,47.14
2019-03-18T12:26:27.309Z,47.06
2019-03-18T12:29:30.599Z,45.47
2019-03-18T12:32:33.931Z,45.02
2019-03-18T12:35:37.263Z,46.30
2019-03-18T12:38:40.564Z,46.82
2019-03-18T12:41:43.883Z,44.53
2019-03-18T12:44:47.171Z,45.34
2019-03-18T12:47:50.482Z,44.16
2019-03-18T12:50:56.155Z,45.72
2019-03-18T12:53:58.831Z,46.72
2019-03-18T12:57:02.150Z,46.64
2019-03-18T13:00:18.176Z,46.81
2019-03-18T13:03:21.481Z,48.63
2019-03-18T13:06:24.887Z,49.38
2019-03-18T13:09:28.266Z,51.90
2019-03-18T13:12:31.585Z,52.28
2019-03-18T13:15:34.902Z,48.52
2019-03-18T13:18:38.199Z,44.00
2019-03-18T13:21:41.520Z,45.06
2019-03-18T13:24:44.880Z,45.36
2019-03-18T13:27:48.186Z,44.92
2019-03-18T13:30:51.497Z,45.74
2019-03-18T13:33:54.822Z,44.68
2019-03-18T13:36:58.151Z,44.81
2019-03-18T13:40:01.455Z,43.26
2019-03-18T13:43:04.779Z,43.73
2019-03-18T13:46:08.108Z,44.17
2019-03-18T13:49:11.414Z,45.50
2019-03-18T13:52:14.736Z,45.61
2019-03-18T13:55:18.053Z,46.66
2019-03-18T13:58:21.367Z,47.06
2019-03-18T14:01:24.668Z,48.07
2019-03-18T14:04:27.981Z,48.06
2019-03-18T14:07:31.318Z,48.89
2019-03-18T14:10:34.646Z,48.63
2019-03-18T14:13:37.938Z,49.06
2019-03-18T14:16:41.249Z,50.12
2019-03-18T14:19:44.551Z,51.89
2019-03-18T14:22:47.887Z,52.17
2019-03-18T14:25:51.310Z,52.91
2019-03-18T14:28:54.607Z,50.96
2019-03-18T14:31:58.770Z,51.55
2019-03-18T14:35:02.086Z,51.32
2019-03-18T14:38:05.393Z,51.75
2019-03-18T14:41:08.745Z,51.52
2019-03-18T14:44:12.065Z,52.00
2019-03-18T14:47:15.394Z,52.41
2019-03-18T14:50:19.395Z,56.90
2019-03-18T14:53:22.703Z,63.10
2019-03-18T14:56:26.028Z,62.30
2019-03-18T14:59:29.346Z,62.46
2019-03-18T15:02:32.639Z,62.27
2019-03-18T15:05:37.076Z,60.29
2019-03-18T15:08:40.456Z,60.37
2019-03-18T15:11:43.815Z,59.78
2019-03-18T15:14:47.240Z,59.80
2019-03-18T15:17:50.607Z,56.10
2019-03-18T15:20:53.911Z,55.81
2019-03-18T15:23:57.272Z,54.54
2019-03-18T15:27:13.942Z,53.17
2019-03-18T15:30:20.740Z,54.14
2019-03-18T15:33:24.043Z,54.15
2019-03-18T15:36:27.339Z,53.78
2019-03-18T15:39:30.653Z,54.59
2019-03-18T15:42:34.021Z,54.53
2019-03-18T15:45:37.390Z,55.01
2019-03-18T15:48:40.731Z,54.37
2019-03-18T15:51:43.986Z,54.77
2019-03-18T15:54:53.746Z,55.25
2019-03-18T15:57:52.425Z,53.70
2019-03-18T16:00:55.758Z,54.33
2019-03-18T16:03:59.082Z,53.80
2019-03-18T16:07:07.991Z,53.87
2019-03-18T16:10:18.200Z,53.68
2019-03-18T16:13:21.498Z,53.55
2019-03-18T16:16:24.822Z,53.14
2019-03-18T16:19:28.147Z,52.22
2019-03-18T16:22:31.445Z,53.04
2019-03-18T16:25:34.806Z,52.20
2019-03-18T16:28:38.155Z,51.54
2019-03-18T16:31:41.487Z,51.89
2019-03-18T16:34:44.867Z,50.79
2019-03-18T16:37:48.177Z,50.43
2019-03-18T16:40:51.478Z,48.96
2019-03-18T16:43:54.801Z,48.69
2019-03-18T16:46:58.140Z,49.15
2019-03-18T16:50:01.479Z,49.88
2019-03-18T16:53:04.805Z,50.22
2019-03-18T16:56:08.132Z,51.12
2019-03-18T16:59:11.419Z,51.28
2019-03-18T17:02:14.727Z,51.05
2019-03-18T17:05:18.037Z,51.38
2019-03-18T17:08:21.341Z,51.52
2019-03-18T17:11:24.667Z,51.79
2019-03-18T17:14:27.970Z,52.11
2019-03-18T17:17:31.283Z,52.57
2019-03-18T17:20:34.599Z,52.50
2019-03-18T17:23:37.895Z,52.04
2019-03-18T17:26:41.238Z,51.81
2019-03-18T17:29:44.558Z,52.19
2019-03-18T17:32:47.886Z,52.60
2019-03-18T17:35:51.193Z,52.58
2019-03-18T17:38:54.526Z,53.11
2019-03-18T17:41:57.857Z,52.56
2019-03-18T17:45:01.157Z,52.02
2019-03-18T17:48:04.484Z,52.61
2019-03-18T17:51:07.786Z,52.77
2019-03-18T17:54:11.108Z,53.04
2019-03-18T17:57:14.437Z,52.99
2019-03-18T18:00:34.998Z,52.92
2019-03-18T18:03:38.403Z,53.15
2019-03-18T18:06:41.734Z,53.08
2019-03-18T18:09:45.083Z,53.32
2019-03-18T18:12:48.409Z,53.57
2019-03-18T18:15:51.736Z,53.98
2019-03-18T18:18:55.078Z,53.42
2019-03-18T18:21:58.430Z,53.25
2019-03-18T18:25:01.780Z,53.64
2019-03-18T18:28:05.108Z,53.78
2019-03-18T18:31:08.418Z,53.96
2019-03-18T18:34:11.774Z,54.74
2019-03-18T18:37:15.158Z,54.86
2019-03-18T18:40:20.821Z,55.13
2019-03-18T18:43:24.189Z,55.50
2019-03-18T18:46:27.498Z,55.75
2019-03-18T18:49:30.819Z,55.77
2019-03-18T18:52:34.137Z,56.07
2019-03-18T18:55:37.475Z,55.47
2019-03-18T18:58:40.881Z,55.29
2019-03-18T19:01:44.190Z,55.11
2019-03-18T19:04:47.530Z,54.47
2019-03-18T19:07:50.840Z,54.08
2019-03-18T19:10:54.876Z,54.21
2019-03-18T19:13:58.274Z,54.33
2019-03-18T19:17:02.027Z,54.21
2019-03-18T19:20:09.151Z,54.57
2019-03-18T19:23:13.320Z,54.66
2019-03-18T19:26:17.075Z,54.70
2019-03-18T19:29:21.252Z,55.49
2019-03-18T19:32:27.302Z,55.10
2019-03-18T19:35:31.592Z,54.98
2019-03-18T19:38:34.923Z,55.02
2019-03-18T19:41:40.193Z,55.26
2019-03-18T19:44:43.274Z,55.63
2019-03-18T19:47:46.579Z,55.92
2019-03-18T19:50:49.909Z,55.72
2019-03-18T19:53:53.221Z,55.73
2019-03-18T19:56:56.580Z,56.21
2019-03-18T20:00:08.954Z,56.33
2019-03-18T20:03:11.997Z,56.87
2019-03-18T20:06:15.419Z,56.97
2019-03-18T20:09:18.866Z,57.34
2019-03-18T20:12:22.262Z,57.12
2019-03-18T20:15:25.668Z,57.19
2019-03-18T20:18:29.012Z,57.24
2019-03-18T20:21:32.674Z,57.34
2019-03-18T20:24:36.046Z,57.18
2019-03-18T20:27:39.378Z,57.37
2019-03-18T20:30:42.826Z,57.30
2019-03-18T20:33:46.121Z,57.72
2019-03-18T20:36:49.467Z,58.01
2019-03-18T20:39:52.881Z,58.30
2019-03-18T20:42:56.230Z,58.79
2019-03-18T20:45:59.560Z,58.66
2019-03-18T20:49:02.952Z,59.08
2019-03-18T20:52:16.406Z,59.63
2019-03-18T20:55:11.487Z,60.16
2019-03-18T20:58:14.839Z,60.76
2019-03-18T21:01:18.160Z,60.98
2019-03-18T21:04:21.511Z,60.99
2019-03-18T21:07:24.848Z,61.65
2019-03-18T21:10:28.210Z,61.47
2019-03-18T21:13:31.586Z,62.11
2019-03-18T21:16:34.990Z,61.92
2019-03-18T21:19:38.305Z,62.21
2019-03-18T21:22:41.734Z,67.52
2019-03-18T21:25:45.031Z,65.07
2019-03-18T21:28:49.352Z,61.66
2019-03-18T21:31:52.702Z,61.76
2019-03-18T21:34:56.028Z,62.23
2019-03-18T21:37:59.366Z,62.60
2019-03-18T21:41:02.692Z,62.66
2019-03-18T21:44:06.042Z,62.73
2019-03-18T21:47:09.420Z,63.39
2019-03-18T21:50:14.253Z,63.44
2019-03-18T21:53:17.577Z,63.47
2019-03-18T21:56:20.878Z,63.54
2019-03-18T21:59:24.225Z,63.97
2019-03-18T22:02:27.565Z,63.97
2019-03-18T22:05:30.893Z,64.07
2019-03-18T22:08:34.285Z,64.33
2019-03-18T22:11:37.636Z,64.52
2019-03-18T22:14:40.961Z,64.59
2019-03-18T22:17:44.289Z,64.27
2019-03-18T22:20:47.608Z,64.57
2019-03-18T22:23:50.923Z,64.39
2019-03-18T22:26:54.260Z,64.54
2019-03-18T22:29:57.583Z,64.66
2019-03-18T22:33:00.920Z,64.72
2019-03-18T22:36:04.258Z,64.66
2019-03-18T22:39:08.618Z,64.75
2019-03-18T22:42:11.966Z,65.22
2019-03-18T22:45:17.486Z,65.01
2019-03-18T22:48:20.828Z,64.87
2019-03-18T22:51:24.130Z,65.13
2019-03-18T22:54:27.453Z,65.77
2019-03-18T22:57:30.810Z,65.50
2019-03-18T23:00:35.790Z,66.29
2019-03-18T23:03:39.120Z,66.20
2019-03-18T23:06:42.408Z,66.16
2019-03-18T23:09:45.736Z,66.07
2019-03-18T23:12:49.093Z,66.29
2019-03-18T23:15:52.370Z,66.91
2019-03-18T23:18:55.712Z,66.39
2019-03-18T23:21:59.106Z,66.57
2019-03-18T23:25:06.951Z,66.33
2019-03-18T23:28:07.422Z,66.73
2019-03-18T23:31:10.758Z,66.31
2019-03-18T23:34:14.109Z,66.27
2019-03-18T23:37:17.418Z,66.10
2019-03-18T23:40:20.785Z,66.12
2019-03-18T23:43:24.137Z,66.45
2019-03-18T23:46:27.489Z,66.11
2019-03-18T23:49:30.834Z,65.77
2019-03-18T23:52:34.162Z,65.98
2019-03-18T23:55:37.491Z,65.95
2019-03-18T23:58:40.814Z,66.08
